Terminal Aerodrome Forecast
Issued by NWS

Home | Current Version | Previous Version | Text Only | Print | Product List | Glossary On
Versions: 1 2 3 4 5 6 7 8 9 10 11 12 13 14 15 16 17 18 19
821
FTUS41 KCAR 222333
TAFPQI
TAF
KPQI 222333Z 2300/2324 02005KT P6SM SCT025 BKN040
     FM230200 02005KT P6SM BKN025
     FM230600 01004KT P6SM BKN015
     FM230800 VRB03KT 4SM BR SCT025
     FM231200 01004KT P6SM SCT250=

USA.gov is the U.S. government's official web portal to all federal, state and local government web resources and services.